createdAt,value
2023-10-20T00:00:14.579Z,6.92
2023-10-20T00:01:14.689Z,6.92
2023-10-20T00:02:14.833Z,6.94
2023-10-20T00:03:14.988Z,6.94
2023-10-20T00:04:15.040Z,6.91
2023-10-20T00:05:15.436Z,6.89
2023-10-20T00:06:15.203Z,6.91
2023-10-20T00:07:15.288Z,6.91
2023-10-20T00:08:15.481Z,6.91
2023-10-20T00:09:15.620Z,6.91
2023-10-20T00:10:15.612Z,6.91
2023-10-20T00:11:15.798Z,6.89
2023-10-20T00:12:15.859Z,6.87
2023-10-20T00:13:15.983Z,6.89
2023-10-20T00:14:16.107Z,6.91
2023-10-20T00:15:17.550Z,6.89
2023-10-20T00:16:16.331Z,6.91
2023-10-20T00:17:16.481Z,6.91
2023-10-20T00:18:16.568Z,6.92
2023-10-20T00:19:16.620Z,6.92
2023-10-20T00:20:16.752Z,6.95
2023-10-20T00:21:16.846Z,6.97
2023-10-20T00:22:16.936Z,6.94
2023-10-20T00:23:17.091Z,6.91
2023-10-20T00:24:17.187Z,6.89
2023-10-20T00:25:17.256Z,6.89
2023-10-20T00:26:18.356Z,6.87
2023-10-20T00:27:17.466Z,6.87
2023-10-20T00:28:17.615Z,6.87
2023-10-20T00:29:17.735Z,6.87
2023-10-20T00:30:17.856Z,6.89
2023-10-20T00:31:17.931Z,6.91
2023-10-20T00:32:18.121Z,6.87
2023-10-20T00:33:18.208Z,6.87
2023-10-20T00:34:18.265Z,6.86
2023-10-20T00:35:18.391Z,6.87
2023-10-20T00:36:18.490Z,6.87
2023-10-20T00:37:18.590Z,6.84
2023-10-20T00:38:18.763Z,6.86
2023-10-20T00:39:18.835Z,6.87
2023-10-20T00:40:18.946Z,6.87
2023-10-20T00:41:19.143Z,6.86
2023-10-20T00:42:19.183Z,6.84
2023-10-20T00:43:19.314Z,6.86
2023-10-20T00:44:19.477Z,6.87
2023-10-20T00:45:19.517Z,6.86
2023-10-20T00:46:19.623Z,6.86
2023-10-20T00:47:19.794Z,6.83
2023-10-20T00:48:19.997Z,6.84
2023-10-20T00:49:19.955Z,6.86
2023-10-20T00:50:20.112Z,6.89
2023-10-20T00:51:20.186Z,6.84
2023-10-20T00:52:20.312Z,6.87
2023-10-20T00:53:20.456Z,6.86
2023-10-20T00:54:20.544Z,6.87
2023-10-20T00:55:20.663Z,6.86
2023-10-20T00:56:20.788Z,6.86
2023-10-20T00:57:20.872Z,6.84
2023-10-20T00:58:21.041Z,6.86
2023-10-20T00:59:21.129Z,6.86
2023-10-20T01:00:21.230Z,6.87
2023-10-20T01:01:21.400Z,6.91
2023-10-20T01:02:21.767Z,6.89
2023-10-20T01:03:21.731Z,6.86
2023-10-20T01:04:21.722Z,6.89
2023-10-20T01:05:21.854Z,6.86
2023-10-20T01:06:21.946Z,6.86
2023-10-20T01:07:22.053Z,6.84
2023-10-20T01:08:22.236Z,6.86
2023-10-20T01:09:22.320Z,6.84
2023-10-20T01:10:22.425Z,6.86
2023-10-20T01:11:22.565Z,6.86
2023-10-20T01:12:22.667Z,6.86
2023-10-20T01:13:22.774Z,6.83
2023-10-20T01:14:22.938Z,6.84
2023-10-20T01:15:22.995Z,6.86
2023-10-20T01:16:23.126Z,6.86
2023-10-20T01:17:23.301Z,6.84
2023-10-20T01:18:23.442Z,6.89
2023-10-20T01:19:23.440Z,6.89
2023-10-20T01:20:23.612Z,6.89
2023-10-20T01:21:23.685Z,6.87
2023-10-20T01:22:23.813Z,6.89
2023-10-20T01:23:23.955Z,6.87
2023-10-20T01:24:24.035Z,6.87
2023-10-20T01:25:24.152Z,6.87
2023-10-20T01:26:24.357Z,6.89
2023-10-20T01:27:24.411Z,6.92
2023-10-20T01:28:24.563Z,6.92
2023-10-20T01:29:24.724Z,6.91
2023-10-20T01:30:24.794Z,6.92
2023-10-20T01:31:24.905Z,6.87
2023-10-20T01:32:25.063Z,6.87
2023-10-20T01:33:25.171Z,6.87
2023-10-20T01:34:25.285Z,6.86
2023-10-20T01:35:25.472Z,6.84
2023-10-20T01:36:25.500Z,6.86
2023-10-20T01:37:25.616Z,6.84
2023-10-20T01:38:25.844Z,6.86
2023-10-20T01:39:25.833Z,6.87
2023-10-20T01:40:25.971Z,6.84
2023-10-20T01:41:26.161Z,6.83
2023-10-20T01:42:26.212Z,6.84
2023-10-20T01:43:26.353Z,6.84
2023-10-20T01:44:26.482Z,6.82
2023-10-20T01:45:26.549Z,6.82
2023-10-20T01:46:26.711Z,6.80
2023-10-20T01:47:26.843Z,6.77
2023-10-20T01:48:26.943Z,6.77
2023-10-20T01:49:27.038Z,6.79
2023-10-20T01:50:27.193Z,6.80
2023-10-20T01:51:27.269Z,6.82
2023-10-20T01:52:27.389Z,6.82
2023-10-20T01:53:27.541Z,6.82
2023-10-20T01:54:27.622Z,6.79
2023-10-20T01:55:27.787Z,6.84
2023-10-20T01:56:27.887Z,6.84
2023-10-20T01:57:27.970Z,6.83
2023-10-20T01:58:28.129Z,6.86
2023-10-20T01:59:28.284Z,6.87
2023-10-20T02:00:28.363Z,6.86
2023-10-20T02:01:28.536Z,6.91
2023-10-20T02:02:28.678Z,6.89
2023-10-20T02:03:28.882Z,6.86
2023-10-20T02:04:28.821Z,6.87
2023-10-20T02:05:28.953Z,6.86
2023-10-20T02:06:29.042Z,6.91
2023-10-20T02:07:29.158Z,6.87
2023-10-20T02:08:29.358Z,6.91
2023-10-20T02:09:29.369Z,6.92
2023-10-20T02:10:29.512Z,6.91
2023-10-20T02:11:29.609Z,6.94
2023-10-20T02:12:29.724Z,6.92
2023-10-20T02:13:29.860Z,6.92
2023-10-20T02:14:29.974Z,6.91
2023-10-20T02:15:30.074Z,6.89
2023-10-20T02:16:30.222Z,6.86
2023-10-20T02:17:30.436Z,6.87
2023-10-20T02:18:30.461Z,6.84
2023-10-20T02:19:30.520Z,6.87
2023-10-20T02:20:30.688Z,6.86
2023-10-20T02:21:30.738Z,6.86
2023-10-20T02:22:30.904Z,6.86
2023-10-20T02:23:31.156Z,6.87
2023-10-20T02:24:31.401Z,6.86
2023-10-20T02:25:31.201Z,6.87
2023-10-20T02:26:31.385Z,6.87
2023-10-20T02:27:31.443Z,6.87
2023-10-20T02:28:31.598Z,6.91
2023-10-20T02:29:31.681Z,6.87
2023-10-20T02:30:31.791Z,6.89
2023-10-20T02:31:31.927Z,6.87
2023-10-20T02:32:32.154Z,6.87
2023-10-20T02:33:32.140Z,6.87
2023-10-20T02:34:32.407Z,6.87
2023-10-20T02:35:32.412Z,6.87
2023-10-20T02:36:32.447Z,6.89
2023-10-20T02:37:32.554Z,6.89
2023-10-20T02:38:32.717Z,6.87
2023-10-20T02:39:32.789Z,6.84
2023-10-20T02:40:32.908Z,6.86
2023-10-20T02:41:33.046Z,6.87
2023-10-20T02:42:33.137Z,6.86
2023-10-20T02:43:33.245Z,6.87
2023-10-20T02:44:33.513Z,6.87
2023-10-20T02:45:33.462Z,6.86
2023-10-20T02:46:33.622Z,6.86
2023-10-20T02:47:33.770Z,6.84
2023-10-20T02:48:33.811Z,6.84
2023-10-20T02:49:33.910Z,6.84
2023-10-20T02:50:34.062Z,6.83
2023-10-20T02:51:34.122Z,6.84
2023-10-20T02:52:34.252Z,6.80
2023-10-20T02:53:34.396Z,6.80
2023-10-20T02:54:34.553Z,6.77
2023-10-20T02:55:34.577Z,6.75
2023-10-20T02:56:34.763Z,6.73
2023-10-20T02:57:34.810Z,6.72
2023-10-20T02:58:34.948Z,6.72
2023-10-20T02:59:35.090Z,6.65
2023-10-20T03:00:35.193Z,6.65
2023-10-20T03:01:35.283Z,6.67
2023-10-20T03:02:35.460Z,6.68
2023-10-20T03:03:35.761Z,6.69
2023-10-20T03:04:35.948Z,6.72
2023-10-20T03:05:35.755Z,6.69
2023-10-20T03:06:35.824Z,6.72
2023-10-20T03:07:35.941Z,6.68
2023-10-20T03:08:36.087Z,6.68
2023-10-20T03:09:36.163Z,6.65
2023-10-20T03:10:36.304Z,6.62
2023-10-20T03:11:36.476Z,6.65
2023-10-20T03:12:36.529Z,6.65
2023-10-20T03:13:36.651Z,6.67
2023-10-20T03:14:36.953Z,6.62
2023-10-20T03:15:36.854Z,6.62
2023-10-20T03:16:37.017Z,6.61
2023-10-20T03:17:37.172Z,6.64
2023-10-20T03:18:37.245Z,6.62
2023-10-20T03:19:37.338Z,6.59
2023-10-20T03:20:37.481Z,6.59
2023-10-20T03:21:37.559Z,6.55
2023-10-20T03:22:37.692Z,6.55
2023-10-20T03:23:37.905Z,6.55
2023-10-20T03:24:37.946Z,6.57
2023-10-20T03:25:38.091Z,6.58
2023-10-20T03:26:38.245Z,6.57
2023-10-20T03:27:38.286Z,6.59
2023-10-20T03:28:38.425Z,6.61
2023-10-20T03:29:38.539Z,6.59
2023-10-20T03:30:38.677Z,6.58
2023-10-20T03:31:38.751Z,6.58
2023-10-20T03:32:38.979Z,6.57
2023-10-20T03:33:38.992Z,6.57
2023-10-20T03:34:39.115Z,6.57
2023-10-20T03:35:39.223Z,6.58
2023-10-20T03:36:39.332Z,6.58
2023-10-20T03:37:39.446Z,6.58
2023-10-20T03:38:39.629Z,6.57
2023-10-20T03:39:39.687Z,6.59
2023-10-20T03:40:39.811Z,6.58
2023-10-20T03:41:39.939Z,6.55
2023-10-20T03:42:40.030Z,6.57
2023-10-20T03:43:40.150Z,6.54
2023-10-20T03:44:40.307Z,6.50
2023-10-20T03:45:40.371Z,6.51
2023-10-20T03:46:40.541Z,6.51
2023-10-20T03:47:40.794Z,6.51
2023-10-20T03:48:40.749Z,6.51
2023-10-20T03:49:40.836Z,6.50
2023-10-20T03:50:41.025Z,6.50
2023-10-20T03:51:41.074Z,6.51
2023-10-20T03:52:41.196Z,6.54
2023-10-20T03:53:41.343Z,6.50
2023-10-20T03:54:41.463Z,6.51
2023-10-20T03:55:41.541Z,6.54
2023-10-20T03:56:41.710Z,6.50
2023-10-20T03:57:41.789Z,6.50
2023-10-20T03:58:41.933Z,6.51
2023-10-20T03:59:42.074Z,6.49
2023-10-20T04:00:42.167Z,6.47
2023-10-20T04:01:42.316Z,6.46
2023-10-20T04:02:42.546Z,6.47
2023-10-20T04:03:42.600Z,6.47
2023-10-20T04:04:42.638Z,6.43
2023-10-20T04:05:42.792Z,6.43
2023-10-20T04:06:42.886Z,6.44
2023-10-20T04:07:43.044Z,6.43
2023-10-20T04:08:43.160Z,6.47
2023-10-20T04:09:43.223Z,6.47
2023-10-20T04:10:43.363Z,6.50
2023-10-20T04:11:43.497Z,6.47
2023-10-20T04:12:43.615Z,6.49
2023-10-20T04:13:43.788Z,6.49
2023-10-20T04:14:43.958Z,6.47
2023-10-20T04:15:43.951Z,6.46
2023-10-20T04:16:44.165Z,6.47
2023-10-20T04:17:44.316Z,6.46
2023-10-20T04:18:44.347Z,6.49
2023-10-20T04:19:44.444Z,6.49
2023-10-20T04:20:44.631Z,6.44
2023-10-20T04:21:44.698Z,6.44
2023-10-20T04:22:44.836Z,6.40
2023-10-20T04:23:45.559Z,6.41
2023-10-20T04:24:45.058Z,6.41
2023-10-20T04:25:45.187Z,6.44
2023-10-20T04:26:45.423Z,6.43
2023-10-20T04:27:45.430Z,6.41
2023-10-20T04:28:45.590Z,6.40
2023-10-20T04:29:45.730Z,6.41
2023-10-20T04:30:45.812Z,6.40
2023-10-20T04:31:45.965Z,6.39
2023-10-20T04:32:46.124Z,6.36
2023-10-20T04:33:46.204Z,6.39
2023-10-20T04:34:46.306Z,6.36
2023-10-20T04:35:46.479Z,6.36
2023-10-20T04:36:46.559Z,6.37
2023-10-20T04:37:46.677Z,6.39
2023-10-20T04:38:46.839Z,6.33
2023-10-20T04:39:46.912Z,6.33
2023-10-20T04:40:47.052Z,6.32
2023-10-20T04:41:47.163Z,6.33
2023-10-20T04:42:47.308Z,6.32
2023-10-20T04:43:47.439Z,6.29
2023-10-20T04:44:47.588Z,6.28
2023-10-20T04:45:47.694Z,6.28
2023-10-20T04:46:47.838Z,6.29
2023-10-20T04:47:48.051Z,6.29
2023-10-20T04:48:48.104Z,6.22
2023-10-20T04:49:48.206Z,6.25
2023-10-20T04:50:48.396Z,6.22
2023-10-20T04:51:48.469Z,6.25
2023-10-20T04:52:48.642Z,6.25
2023-10-20T04:53:48.762Z,6.22
2023-10-20T04:54:48.864Z,6.21
2023-10-20T04:55:48.997Z,6.22
2023-10-20T04:56:49.174Z,6.21
2023-10-20T04:57:49.277Z,6.25
2023-10-20T04:58:49.438Z,6.22
2023-10-20T04:59:49.514Z,6.22
2023-10-20T05:00:49.647Z,6.22
2023-10-20T05:01:49.834Z,6.25
2023-10-20T05:02:50.018Z,6.22
2023-10-20T05:03:50.112Z,6.26
2023-10-20T05:04:50.152Z,6.25
2023-10-20T05:05:50.296Z,6.25
2023-10-20T05:06:50.456Z,6.18
2023-10-20T05:07:50.582Z,6.17
2023-10-20T05:08:50.702Z,6.17
2023-10-20T05:09:50.796Z,6.15
2023-10-20T05:10:50.963Z,6.15
2023-10-20T05:11:51.057Z,6.13
2023-10-20T05:12:51.219Z,6.18
2023-10-20T05:13:51.365Z,6.18
2023-10-20T05:14:51.520Z,6.17
2023-10-20T05:15:51.637Z,6.18
2023-10-20T05:16:51.712Z,6.17
2023-10-20T05:17:51.987Z,6.13
2023-10-20T05:18:51.991Z,6.10
2023-10-20T05:19:52.111Z,6.10
2023-10-20T05:20:52.260Z,6.07
2023-10-20T05:21:52.373Z,6.10
2023-10-20T05:22:52.523Z,6.09
2023-10-20T05:23:52.676Z,6.10
2023-10-20T05:24:52.779Z,6.09
2023-10-20T05:25:52.909Z,6.13
2023-10-20T05:26:53.043Z,6.13
2023-10-20T05:27:53.149Z,6.10
2023-10-20T05:28:53.344Z,6.13
2023-10-20T05:29:53.426Z,6.12
2023-10-20T05:30:53.551Z,6.12
2023-10-20T05:31:53.725Z,6.12
2023-10-20T05:32:53.963Z,6.10
2023-10-20T05:33:53.966Z,6.12
2023-10-20T05:34:54.090Z,6.07
2023-10-20T05:35:54.246Z,6.09
2023-10-20T05:36:54.353Z,6.09
2023-10-20T05:37:54.474Z,6.13
2023-10-20T05:38:54.621Z,6.12
2023-10-20T05:39:54.731Z,6.10
2023-10-20T05:40:54.860Z,6.09
2023-10-20T05:41:54.995Z,6.06
2023-10-20T05:42:55.128Z,6.06
2023-10-20T05:43:55.311Z,6.05
2023-10-20T05:44:55.719Z,6.03
2023-10-20T05:45:55.607Z,6.06
2023-10-20T05:46:55.644Z,6.03
2023-10-20T05:47:55.858Z,6.02
2023-10-20T05:48:56.044Z,5.97
2023-10-20T05:49:56.047Z,5.94
2023-10-20T05:50:56.175Z,5.95
2023-10-20T05:51:56.313Z,5.92
2023-10-20T05:52:56.434Z,5.91
2023-10-20T05:53:56.589Z,5.89
2023-10-20T05:54:56.694Z,5.89
2023-10-20T05:55:56.796Z,5.88
2023-10-20T05:56:56.951Z,5.91
2023-10-20T05:57:57.060Z,5.89
2023-10-20T05:58:57.220Z,5.87
2023-10-20T05:59:57.322Z,5.85
2023-10-20T06:01:03.014Z,5.85
2023-10-20T06:01:57.644Z,5.85
2023-10-20T06:02:57.811Z,5.87
2023-10-20T06:03:57.970Z,5.85
2023-10-20T06:04:57.993Z,5.87
2023-10-20T06:05:58.122Z,5.89
2023-10-20T06:06:58.247Z,5.91
2023-10-20T06:07:58.362Z,5.92
2023-10-20T06:08:58.534Z,5.94
2023-10-20T06:09:58.629Z,5.92
2023-10-20T06:10:58.782Z,5.92
2023-10-20T06:11:58.899Z,5.91
2023-10-20T06:12:59.033Z,5.91
2023-10-20T06:13:59.168Z,5.89
2023-10-20T06:14:59.291Z,5.89
2023-10-20T06:15:59.417Z,5.89
2023-10-20T06:16:59.567Z,5.87
2023-10-20T06:17:59.733Z,5.89
2023-10-20T06:18:59.851Z,5.92
2023-10-20T06:19:59.929Z,5.91
2023-10-20T06:21:00.085Z,5.92
2023-10-20T06:22:00.192Z,5.91
2023-10-20T06:23:00.343Z,5.92
2023-10-20T06:24:00.485Z,5.92
2023-10-20T06:25:00.602Z,5.89
2023-10-20T06:26:00.741Z,5.92
2023-10-20T06:27:00.865Z,5.89
2023-10-20T06:28:00.976Z,5.89
2023-10-20T06:29:01.136Z,5.91
2023-10-20T06:30:01.240Z,5.92
2023-10-20T06:31:01.355Z,5.94
2023-10-20T06:32:01.528Z,5.95
2023-10-20T06:33:01.787Z,5.94
2023-10-20T06:34:02.029Z,5.95
2023-10-20T06:35:01.907Z,5.97
2023-10-20T06:36:02.027Z,5.99
2023-10-20T06:37:02.162Z,6.00
2023-10-20T06:38:02.281Z,6.00
2023-10-20T06:39:02.438Z,5.99
2023-10-20T06:40:02.529Z,5.97
2023-10-20T06:41:02.689Z,5.95
2023-10-20T06:42:02.824Z,5.95
2023-10-20T06:43:02.934Z,5.94
2023-10-20T06:44:03.074Z,5.97
2023-10-20T06:45:03.200Z,5.94
2023-10-20T06:46:03.347Z,5.95
2023-10-20T06:47:03.458Z,5.94
2023-10-20T06:48:03.604Z,5.91
2023-10-20T06:49:03.729Z,5.94
2023-10-20T06:50:03.832Z,5.97
2023-10-20T06:51:03.969Z,5.92
2023-10-20T06:52:04.110Z,5.94
2023-10-20T06:53:04.212Z,5.94
2023-10-20T06:54:04.337Z,5.95
2023-10-20T06:55:36.349Z,5.97
2023-10-20T06:56:13.336Z,5.94
2023-10-20T06:57:04.786Z,5.89
2023-10-20T06:58:04.853Z,5.89
2023-10-20T06:59:05.006Z,5.89
2023-10-20T07:00:05.183Z,5.91
2023-10-20T07:01:05.333Z,5.88
2023-10-20T07:02:05.390Z,5.88
2023-10-20T07:03:05.585Z,5.88
2023-10-20T07:04:05.718Z,5.91
2023-10-20T07:05:05.787Z,5.85
2023-10-20T07:06:05.885Z,5.85
2023-10-20T07:07:06.050Z,5.87
2023-10-20T07:08:06.167Z,5.84
2023-10-20T07:09:06.314Z,5.85
2023-10-20T07:10:06.432Z,5.82
2023-10-20T07:11:06.563Z,5.87
2023-10-20T07:12:07.342Z,5.87
2023-10-20T07:13:06.829Z,5.87
2023-10-20T07:14:06.953Z,5.88
2023-10-20T07:15:07.081Z,5.87
2023-10-20T07:16:07.323Z,5.88
2023-10-20T07:17:07.336Z,5.85
2023-10-20T07:18:07.536Z,5.85
2023-10-20T07:19:07.631Z,5.85
2023-10-20T07:20:07.943Z,5.84
2023-10-20T07:21:07.849Z,5.82
2023-10-20T07:22:07.988Z,5.84
2023-10-20T07:23:08.166Z,5.81
2023-10-20T07:24:08.260Z,5.76
2023-10-20T07:25:08.373Z,5.79
2023-10-20T07:26:08.590Z,5.79
2023-10-20T07:27:08.636Z,5.78
2023-10-20T07:28:08.771Z,5.79
2023-10-20T07:29:08.968Z,5.79
2023-10-20T07:30:09.053Z,5.79
2023-10-20T07:31:09.202Z,5.78
2023-10-20T07:32:09.330Z,5.78
2023-10-20T07:33:09.513Z,5.78
2023-10-20T07:34:09.600Z,5.79
2023-10-20T07:35:09.775Z,5.76
2023-10-20T07:36:09.845Z,5.81
2023-10-20T07:37:09.985Z,5.76
2023-10-20T07:38:10.130Z,5.78
2023-10-20T07:39:10.279Z,5.79
2023-10-20T07:40:10.392Z,5.79
2023-10-20T07:41:10.566Z,5.76
2023-10-20T07:42:10.643Z,5.79
2023-10-20T07:43:10.766Z,5.79
2023-10-20T07:44:10.985Z,5.82
2023-10-20T07:45:11.044Z,5.85
2023-10-20T07:46:11.213Z,5.84
2023-10-20T07:47:11.368Z,5.82
2023-10-20T07:48:11.539Z,5.85
2023-10-20T07:49:11.588Z,5.81
2023-10-20T07:50:11.750Z,5.82
2023-10-20T07:51:11.893Z,5.82
2023-10-20T07:52:11.987Z,5.84
2023-10-20T07:53:12.157Z,5.88
2023-10-20T07:54:12.235Z,5.84
2023-10-20T07:55:12.348Z,5.84
2023-10-20T07:56:12.490Z,5.81
2023-10-20T07:57:13.901Z,5.81
2023-10-20T07:58:12.731Z,5.79
2023-10-20T07:59:12.914Z,5.74
2023-10-20T08:00:12.999Z,5.74
2023-10-20T08:01:13.176Z,5.76
2023-10-20T08:02:13.311Z,5.74
2023-10-20T08:03:13.593Z,5.73
2023-10-20T08:04:13.798Z,5.76
2023-10-20T08:05:14.078Z,5.76
2023-10-20T08:06:14.193Z,5.76
2023-10-20T08:07:13.996Z,5.74
2023-10-20T08:08:14.120Z,5.76
2023-10-20T08:09:14.230Z,5.79
2023-10-20T08:10:14.330Z,5.78
2023-10-20T08:11:14.530Z,5.73
2023-10-20T08:12:14.617Z,5.71
2023-10-20T08:13:14.737Z,5.69
2023-10-20T08:14:14.894Z,5.71
2023-10-20T08:15:15.106Z,5.71
2023-10-20T08:16:15.197Z,5.70
2023-10-20T08:17:15.281Z,5.69
2023-10-20T08:18:15.430Z,5.67
2023-10-20T08:19:15.564Z,5.67
2023-10-20T08:20:15.700Z,5.67
2023-10-20T08:21:15.827Z,5.66
2023-10-20T08:22:15.950Z,5.69
2023-10-20T08:23:16.123Z,5.69
2023-10-20T08:24:16.227Z,5.66
2023-10-20T08:25:16.368Z,5.69
2023-10-20T08:26:16.481Z,5.67
2023-10-20T08:27:16.612Z,5.69
2023-10-20T08:28:16.729Z,5.69
2023-10-20T08:29:16.909Z,5.66
2023-10-20T08:30:16.992Z,5.63
2023-10-20T08:31:17.190Z,5.61
2023-10-20T08:32:17.278Z,5.60
2023-10-20T08:33:17.451Z,5.61
2023-10-20T08:34:17.562Z,5.61
2023-10-20T08:35:17.736Z,5.60
2023-10-20T08:36:17.834Z,5.58
2023-10-20T08:37:17.964Z,5.53
2023-10-20T08:38:18.100Z,5.56
2023-10-20T08:39:18.264Z,5.55
2023-10-20T08:40:18.391Z,5.55
2023-10-20T08:41:18.574Z,5.58
2023-10-20T08:42:18.645Z,5.60
2023-10-20T08:43:18.795Z,5.63
2023-10-20T08:44:18.977Z,5.64
2023-10-20T08:45:19.053Z,5.64
2023-10-20T08:46:19.432Z,5.64
2023-10-20T08:47:19.365Z,5.67
2023-10-20T08:48:19.538Z,5.66
2023-10-20T08:49:19.627Z,5.66
2023-10-20T08:50:19.755Z,5.67
2023-10-20T08:51:19.885Z,5.64
2023-10-20T08:52:20.025Z,5.61
2023-10-20T08:53:20.422Z,5.61
2023-10-20T08:56:20.614Z,5.60
2023-10-20T08:57:20.719Z,5.61
2023-10-20T08:58:20.883Z,5.63
2023-10-20T08:59:21.019Z,5.60
2023-10-20T09:00:21.120Z,5.61
2023-10-20T09:01:21.295Z,5.56
2023-10-20T09:02:21.433Z,5.58
2023-10-20T09:03:21.617Z,5.58
2023-10-20T09:04:21.703Z,5.60
2023-10-20T09:05:21.812Z,5.63
2023-10-20T09:06:21.932Z,5.64
2023-10-20T09:07:22.065Z,5.66
2023-10-20T09:08:22.225Z,5.64
2023-10-20T09:09:22.367Z,5.61
2023-10-20T09:10:22.477Z,5.61
2023-10-20T09:11:22.686Z,5.58
2023-10-20T09:12:23.643Z,5.58
2023-10-20T09:13:22.883Z,5.58
2023-10-20T09:14:23.064Z,5.56
2023-10-20T09:15:23.187Z,5.60
2023-10-20T09:16:23.295Z,5.60
2023-10-20T09:17:23.530Z,5.60
2023-10-20T09:18:23.588Z,5.58
2023-10-20T09:19:23.707Z,5.56
2023-10-20T09:20:23.839Z,5.56
2023-10-20T09:21:23.998Z,5.56
2023-10-20T09:22:24.104Z,5.56
2023-10-20T09:23:24.266Z,5.53
2023-10-20T09:24:24.403Z,5.52
2023-10-20T09:25:24.590Z,5.55
2023-10-20T09:26:24.688Z,5.55
2023-10-20T09:27:24.789Z,5.51
2023-10-20T09:28:24.917Z,5.52
2023-10-20T09:29:25.135Z,5.53
2023-10-20T09:30:25.198Z,5.52
2023-10-20T09:31:25.399Z,5.51
2023-10-20T09:32:25.767Z,5.51
2023-10-20T09:33:25.680Z,5.49
2023-10-20T09:34:25.815Z,5.49
2023-10-20T09:35:25.956Z,5.51
2023-10-20T09:36:26.039Z,5.51
2023-10-20T09:37:26.181Z,5.55
2023-10-20T09:38:26.322Z,5.51
2023-10-20T09:39:26.774Z,5.52
2023-10-20T09:40:26.732Z,5.52
2023-10-20T09:41:26.732Z,5.53
2023-10-20T09:42:26.857Z,5.55
2023-10-20T09:43:27.116Z,5.51
2023-10-20T09:44:27.234Z,5.52
2023-10-20T09:45:27.267Z,5.52
2023-10-20T09:46:27.433Z,5.49
2023-10-20T09:47:27.631Z,5.52
2023-10-20T09:48:27.794Z,5.53
2023-10-20T09:49:27.964Z,5.53
2023-10-20T09:50:28.035Z,5.53
2023-10-20T09:51:28.135Z,5.51
2023-10-20T09:52:30.241Z,5.52
2023-10-20T09:53:28.431Z,5.53
2023-10-20T09:54:28.578Z,5.53
2023-10-20T09:55:28.686Z,5.53
2023-10-20T09:56:28.896Z,5.51
2023-10-20T09:57:28.986Z,5.51
2023-10-20T09:58:29.123Z,5.49
2023-10-20T09:59:32.231Z,5.55
2023-10-20T10:00:29.432Z,5.49
2023-10-20T10:01:29.552Z,5.52
2023-10-20T10:02:30.162Z,5.55
2023-10-20T10:03:30.030Z,5.55
2023-10-20T10:04:30.031Z,5.55
2023-10-20T10:05:30.121Z,5.49
2023-10-20T10:06:30.239Z,5.53
2023-10-20T10:07:30.389Z,5.53
2023-10-20T10:08:30.531Z,5.55
2023-10-20T10:09:30.677Z,5.52
2023-10-20T10:10:30.779Z,5.52
2023-10-20T10:11:31.009Z,5.51
2023-10-20T10:12:31.082Z,5.48
2023-10-20T10:13:31.214Z,5.51
2023-10-20T10:14:31.446Z,5.52
2023-10-20T10:15:31.489Z,5.51
2023-10-20T10:16:31.593Z,5.49
2023-10-20T10:17:31.840Z,5.46
2023-10-20T10:18:31.949Z,5.46
2023-10-20T10:19:32.022Z,5.43
2023-10-20T10:20:32.215Z,5.42
2023-10-20T10:21:32.280Z,5.45
2023-10-20T10:22:32.442Z,5.43
2023-10-20T10:23:32.559Z,5.42
2023-10-20T10:24:33.044Z,5.45
2023-10-20T10:25:32.831Z,5.46
2023-10-20T10:26:32.989Z,5.45
2023-10-20T10:27:33.128Z,5.46
2023-10-20T10:28:33.219Z,5.48
2023-10-20T10:29:34.660Z,5.48
2023-10-20T10:30:33.471Z,5.48
2023-10-20T10:31:33.658Z,5.48
2023-10-20T10:32:34.360Z,5.46
2023-10-20T10:33:33.983Z,5.45
2023-10-20T10:34:34.122Z,5.43
2023-10-20T10:35:34.227Z,5.43
2023-10-20T10:36:34.277Z,5.45
2023-10-20T10:37:34.658Z,5.45
2023-10-20T10:38:34.551Z,5.45
2023-10-20T10:39:35.051Z,5.45
2023-10-20T10:40:34.770Z,5.48
2023-10-20T10:41:35.645Z,5.46
2023-10-20T10:43:35.165Z,5.49
2023-10-20T10:44:35.520Z,5.49
2023-10-20T10:45:35.574Z,5.51
2023-10-20T10:46:35.604Z,5.49
2023-10-20T10:47:35.753Z,5.52
2023-10-20T10:48:35.873Z,5.55
2023-10-20T10:49:36.011Z,5.53
2023-10-20T10:50:36.135Z,5.53
2023-10-20T10:51:36.232Z,5.52
2023-10-20T10:52:36.352Z,5.53
2023-10-20T10:53:36.518Z,5.53
2023-10-20T10:54:36.775Z,5.52
2023-10-20T10:55:36.758Z,5.51
2023-10-20T10:56:36.899Z,5.49
2023-10-20T10:57:37.027Z,5.49
2023-10-20T10:58:37.150Z,5.49
2023-10-20T10:59:37.391Z,5.49
2023-10-20T11:00:37.459Z,5.52
2023-10-20T11:01:37.585Z,5.51
2023-10-20T11:02:37.776Z,5.56
2023-10-20T11:03:37.914Z,5.51
2023-10-20T11:04:38.233Z,5.49
2023-10-20T11:05:38.139Z,5.49
2023-10-20T11:06:38.243Z,5.49
2023-10-20T11:07:38.384Z,5.48
2023-10-20T11:08:38.540Z,5.49
2023-10-20T11:09:38.657Z,5.49
2023-10-20T11:10:38.802Z,5.49
2023-10-20T11:11:38.969Z,5.49
2023-10-20T11:12:39.039Z,5.48
2023-10-20T11:13:39.179Z,5.49
2023-10-20T11:14:39.352Z,5.49
2023-10-20T11:15:39.448Z,5.51
2023-10-20T11:16:39.715Z,5.51
2023-10-20T11:17:39.785Z,5.48
2023-10-20T11:18:39.855Z,5.49
2023-10-20T11:19:39.996Z,5.51
2023-10-20T11:20:40.170Z,5.49
2023-10-20T11:21:40.258Z,5.48
2023-10-20T11:22:40.418Z,5.49
2023-10-20T11:23:40.550Z,5.52
2023-10-20T11:24:40.661Z,5.53
2023-10-20T11:25:40.835Z,5.53
2023-10-20T11:26:40.971Z,5.53
2023-10-20T11:27:41.044Z,5.53
2023-10-20T11:28:41.180Z,5.56
2023-10-20T11:29:57.508Z,5.53
2023-10-20T11:30:41.466Z,5.53
2023-10-20T11:31:41.553Z,5.53
2023-10-20T11:32:42.754Z,5.56
2023-10-20T11:33:43.845Z,5.56
2023-10-20T11:34:41.960Z,5.60
2023-10-20T11:35:42.136Z,5.58
2023-10-20T11:36:42.184Z,5.61
2023-10-20T11:37:42.320Z,5.64
2023-10-20T11:38:42.486Z,5.64
2023-10-20T11:39:42.607Z,5.64
2023-10-20T11:40:42.731Z,5.61
2023-10-20T11:41:42.891Z,5.58
2023-10-20T11:42:42.962Z,5.58
2023-10-20T11:43:43.105Z,5.60
2023-10-20T11:44:43.257Z,5.63
2023-10-20T11:45:43.367Z,5.61
2023-10-20T11:46:43.525Z,5.63
2023-10-20T11:47:43.731Z,5.64
2023-10-20T11:48:43.790Z,5.63
2023-10-20T11:49:43.899Z,5.66
2023-10-20T11:50:44.045Z,5.61
2023-10-20T11:51:44.137Z,5.63
2023-10-20T11:52:44.274Z,5.66
2023-10-20T11:53:44.420Z,5.63
2023-10-20T11:54:44.534Z,5.64
2023-10-20T11:55:44.661Z,5.66
2023-10-20T11:56:44.798Z,5.64
2023-10-20T11:57:44.919Z,5.64
2023-10-20T11:58:45.045Z,5.64
2023-10-20T11:59:45.225Z,5.66
2023-10-20T12:00:45.282Z,5.63
2023-10-20T12:01:45.449Z,5.67
2023-10-20T12:02:45.587Z,5.67
2023-10-20T12:03:45.784Z,5.66
2023-10-20T12:04:45.867Z,5.64
2023-10-20T12:05:45.991Z,5.63
2023-10-20T12:06:46.062Z,5.66
2023-10-20T12:07:46.155Z,5.66
2023-10-20T12:08:46.308Z,5.66
2023-10-20T12:09:46.445Z,5.69
2023-10-20T12:10:46.544Z,5.70
2023-10-20T12:11:46.810Z,5.69
2023-10-20T12:12:46.822Z,5.70
2023-10-20T12:13:46.958Z,5.71
2023-10-20T12:14:47.114Z,5.71
2023-10-20T12:15:47.217Z,5.73
2023-10-20T12:16:47.375Z,5.74
2023-10-20T12:17:47.581Z,5.73
2023-10-20T12:18:47.590Z,5.71
2023-10-20T12:19:50.120Z,5.69
2023-10-20T12:20:47.947Z,5.67
2023-10-20T12:21:48.000Z,5.64
2023-10-20T12:22:48.107Z,5.61
2023-10-20T12:23:48.300Z,5.64
2023-10-20T12:24:48.399Z,5.64
2023-10-20T12:25:48.531Z,5.66
2023-10-20T12:26:48.692Z,5.64
2023-10-20T12:27:48.773Z,5.69
2023-10-20T12:28:48.902Z,5.70
2023-10-20T12:29:49.099Z,5.70
2023-10-20T12:30:49.226Z,5.67
2023-10-20T12:31:49.360Z,5.69
2023-10-20T12:32:51.652Z,5.70
2023-10-20T12:33:49.624Z,5.66
2023-10-20T12:34:49.686Z,5.66
2023-10-20T12:35:49.872Z,5.63
2023-10-20T12:36:49.912Z,5.66
2023-10-20T12:37:50.059Z,5.64
2023-10-20T12:38:50.238Z,5.64
2023-10-20T12:39:50.341Z,5.66
2023-10-20T12:40:50.462Z,5.67
2023-10-20T12:41:50.602Z,5.67
2023-10-20T12:42:50.726Z,5.66
2023-10-20T12:43:50.838Z,5.64
2023-10-20T12:44:51.033Z,5.67
2023-10-20T12:45:51.109Z,5.67
2023-10-20T12:46:51.237Z,5.67
2023-10-20T12:47:51.434Z,5.70
2023-10-20T12:48:51.579Z,5.69
2023-10-20T12:49:51.698Z,5.70
2023-10-20T12:50:51.804Z,5.70
2023-10-20T12:51:51.892Z,5.67
2023-10-20T12:52:52.018Z,5.64
2023-10-20T12:53:52.217Z,5.66
2023-10-20T12:54:52.306Z,5.66
2023-10-20T12:55:52.404Z,5.66
2023-10-20T12:56:52.563Z,5.66
2023-10-20T12:57:52.680Z,5.64
2023-10-20T12:58:52.848Z,5.63
2023-10-20T12:59:53.037Z,5.61
2023-10-20T13:00:53.063Z,5.61
2023-10-20T13:01:53.234Z,5.63
2023-10-20T13:02:53.418Z,5.60
2023-10-20T13:03:53.663Z,5.61
2023-10-20T13:04:53.609Z,5.63
2023-10-20T13:05:53.761Z,5.61
2023-10-20T13:07:00.544Z,5.64
2023-10-20T13:07:53.975Z,5.66
2023-10-20T13:08:54.138Z,5.66
2023-10-20T13:09:54.248Z,5.64
2023-10-20T13:10:54.365Z,5.66
2023-10-20T13:11:54.580Z,5.64
2023-10-20T13:12:54.608Z,5.64
2023-10-20T13:13:54.771Z,5.66
2023-10-20T13:14:54.931Z,5.64
2023-10-20T13:15:55.010Z,5.64
2023-10-20T13:16:55.137Z,5.66
2023-10-20T13:17:55.344Z,5.66
2023-10-20T13:18:55.380Z,5.67
2023-10-20T13:19:55.552Z,5.69
2023-10-20T13:20:55.676Z,5.63
2023-10-20T13:21:55.777Z,5.63
2023-10-20T13:22:55.918Z,5.63